Time;durP1;ratioP1;P1;durP2;ratioP2;P2;SDS_P1;SDS_P2;PMS_P1;PMS_P2;Temp;Humidity;BMP_temperature;BMP_pressure;BME280_temperature;BME280_humidity;BME280_pressure;Samples;Min_cycle;Max_cycle;Signal;HPM_P1;HPM_P2
2022/12/15 00:39:58;;;;;;;;;;;;;;;-2.46;44.22;100263.94;5076485;28;19954;-82
2022/12/15 00:42:28;;;;;;;;;;;;;;;-2.47;44.36;100262.19;5069267;28;19970;-81
2022/12/15 00:44:56;;;;;;;;;;;;;;;-2.46;44.24;100273.78;5078954;28;19928;-80
2022/12/15 00:47:24;;;;;;;;;;;;;;;-2.46;44.07;100276.44;5074651;28;19981;-80
2022/12/15 01:20:18;;;;;;;;;;;;;;;-2.60;44.06;100286.88;5073675;28;19931;-77
2022/12/15 01:22:46;;;;;;;;;;;;;;;-2.61;43.71;100286.00;5073082;28;19926;-77
2022/12/15 01:25:14;;;;;;;;;;;;;;;-2.62;44.13;100297.66;5056854;28;19965;-78
2022/12/15 01:27:42;;;;;;;;;;;;;;;-2.62;43.83;100296.78;5088121;28;19950;-78
2022/12/15 01:30:12;;;;;;;;;;;;;;;-2.64;43.71;100298.66;5089288;28;19920;-79
2022/12/15 01:32:40;;;;;;;;;;;;;;;-2.63;43.83;100308.44;5066390;28;20298;-79
2022/12/15 01:35:13;;;;;;;;;;;;;;;-2.66;44.12;100309.44;5060519;28;19928;-78
2022/12/15 01:37:40;;;;;;;;;;;;;;;-2.66;43.82;100319.28;5084427;28;20390;-79
2022/12/15 01:42:56;;;;;;;;;;;;;;;-2.69;44.00;100324.78;5070581;28;20374;-80
2022/12/15 01:45:46;;;;;;;;;;;;;;;-2.71;43.85;100328.38;5088507;28;20316;-79
2022/12/15 01:48:14;;;;;;;;;;;;;;;-2.72;43.93;100332.00;5059108;28;20007;-79
2022/12/15 01:50:45;;;;;;;;;;;;;;;-2.74;43.90;100324.94;5065021;28;19928;-79
2022/12/15 01:53:14;;;;;;;;;;;;;;;-2.75;43.93;100332.13;5087120;28;19931;-78
2022/12/15 01:55:42;;;;;;;;;;;;;;;-2.76;43.86;100335.72;5067555;28;20444;-79
2022/12/15 01:58:16;;;;;;;;;;;;;;;-2.76;44.38;100335.72;5091338;28;19962;-78
2022/12/15 02:00:45;;;;;;;;;;;;;;;-2.75;44.34;100334.78;5074417;28;19920;-78
2022/12/15 02:03:13;;;;;;;;;;;;;;;-2.74;44.18;100341.03;5085615;28;19930;-78
2022/12/15 02:05:41;;;;;;;;;;;;;;;-2.74;44.26;100346.38;5065119;28;19927;-77
2022/12/15 02:08:09;;;;;;;;;;;;;;;-2.73;44.50;100348.13;5091947;28;19943;-79
2022/12/15 02:10:42;;;;;;;;;;;;;;;-2.71;44.05;100346.25;5074037;28;20400;-79
2022/12/15 02:13:15;;;;;;;;;;;;;;;-2.72;44.29;100348.06;5066865;28;19959;-78
2022/12/15 02:15:48;;;;;;;;;;;;;;;-2.73;44.34;100340.97;5087651;28;19920;-79
2022/12/15 02:18:19;;;;;;;;;;;;;;;-2.71;44.26;100338.22;5073273;28;19920;-78
2022/12/15 02:20:52;;;;;;;;;;;;;;;-2.72;44.15;100341.84;5077572;28;19982;-78
2022/12/15 02:23:28;;;;;;;;;;;;;;;-2.73;44.28;100342.78;5071884;28;20027;-79
2022/12/15 02:26:21;;;;;;;;;;;;;;;-2.73;44.35;100338.28;5078320;28;20394;-79
2022/12/15 02:28:56;;;;;;;;;;;;;;;-2.74;44.52;100338.34;5043402;28;20290;-79
2022/12/15 02:34:20;;;;;;;;;;;;;;;-2.74;44.68;100341.91;5068210;28;19919;-78
2022/12/15 02:36:49;;;;;;;;;;;;;;;-2.74;44.26;100344.56;5070812;28;19920;-77
2022/12/15 02:39:18;;;;;;;;;;;;;;;-2.74;44.70;100349.06;5073161;28;19948;-79
2022/12/15 02:41:46;;;;;;;;;;;;;;;-2.74;44.37;100343.69;5091845;28;19926;-80
2022/12/15 02:44:16;;;;;;;;;;;;;;;-2.74;44.35;100352.59;5072220;28;20164;-80
2022/12/15 02:46:58;;;;;;;;;;;;;;;-2.75;44.67;100350.84;5077165;28;20533;-80
2022/12/15 02:49:30;;;;;;;;;;;;;;;-2.73;44.55;100365.06;5089481;28;19973;-80
2022/12/15 02:52:06;;;;;;;;;;;;;;;-2.73;44.50;100364.19;5066168;28;20014;-80
2022/12/15 02:54:43;;;;;;;;;;;;;;;-2.73;44.57;100375.78;5061109;28;19920;-80
2022/12/15 02:57:17;;;;;;;;;;;;;;;-2.71;44.76;100383.75;5066053;28;19927;-79
2022/12/15 02:59:54;;;;;;;;;;;;;;;-2.69;44.99;100378.34;5080164;28;19975;-80
2022/12/15 03:02:25;;;;;;;;;;;;;;;-2.68;44.55;100385.41;5064775;28;20370;-79
2022/12/15 03:04:53;;;;;;;;;;;;;;;-2.68;44.87;100383.63;5073305;28;19926;-80
2022/12/15 03:07:22;;;;;;;;;;;;;;;-2.68;45.07;100388.09;5077474;28;19924;-80
2022/12/15 03:09:50;;;;;;;;;;;;;;;-2.66;45.16;100389.78;5096434;28;19921;-79
2022/12/15 03:12:17;;;;;;;;;;;;;;;-2.65;44.96;100390.66;5080858;28;20528;-80
2022/12/15 03:14:45;;;;;;;;;;;;;;;-2.65;44.94;100388.00;5081632;28;19920;-81
2022/12/15 03:17:13;;;;;;;;;;;;;;;-2.65;45.23;100388.88;5091883;28;19946;-81
2022/12/15 03:19:42;;;;;;;;;;;;;;;-2.63;44.91;100396.84;5064302;28;20005;-80
2022/12/15 03:22:09;;;;;;;;;;;;;;;-2.62;44.86;100390.56;5081803;28;19923;-81
2022/12/15 03:24:37;;;;;;;;;;;;;;;-2.61;44.98;100390.47;5075022;28;19927;-81
2022/12/15 03:27:05;;;;;;;;;;;;;;;-2.59;45.09;100385.06;5064750;28;20286;-80
2022/12/15 03:29:32;;;;;;;;;;;;;;;-2.58;45.27;100387.66;5072715;28;20015;-79
2022/12/15 03:32:00;;;;;;;;;;;;;;;-2.55;45.26;100384.00;5065413;28;19920;-80
2022/12/15 03:34:28;;;;;;;;;;;;;;;-2.53;45.60;100392.88;5073914;28;19970;-79
2022/12/15 03:36:57;;;;;;;;;;;;;;;-2.51;45.34;100393.66;5092483;28;19973;-79
2022/12/15 03:39:25;;;;;;;;;;;;;;;-2.49;45.49;100402.50;5090041;28;19924;-79
2022/12/15 03:41:52;;;;;;;;;;;;;;;-2.49;45.24;100400.69;5067236;28;19920;-80
2022/12/15 03:44:20;;;;;;;;;;;;;;;-2.47;45.45;100398.84;5095346;28;19921;-79
2022/12/15 03:46:48;;;;;;;;;;;;;;;-2.45;45.28;100410.34;5081879;28;19946;-80
2022/12/15 03:49:15;;;;;;;;;;;;;;;-2.44;45.19;100413.88;5073808;28;19919;-79
2022/12/15 03:51:43;;;;;;;;;;;;;;;-2.43;45.07;100416.50;5093035;28;19955;-79
2022/12/15 03:54:13;;;;;;;;;;;;;;;-2.44;45.30;100408.53;5097483;28;19962;-79
2022/12/15 03:56:41;;;;;;;;;;;;;;;-2.42;45.31;100414.69;5067619;28;19942;-80
2022/12/15 03:59:08;;;;;;;;;;;;;;;-2.41;45.36;100419.13;5067380;28;20460;-79
2022/12/15 04:01:36;;;;;;;;;;;;;;;-2.40;45.23;100416.41;5084587;28;19920;-79
2022/12/15 04:04:04;;;;;;;;;;;;;;;-2.38;45.39;100421.69;5070826;28;20002;-79
2022/12/15 04:06:32;;;;;;;;;;;;;;;-2.37;45.27;100418.97;5091182;28;19926;-78
2022/12/15 04:09:00;;;;;;;;;;;;;;;-2.36;45.07;100414.44;5086152;28;19927;-78
2022/12/15 04:11:29;;;;;;;;;;;;;;;-2.36;45.26;100403.72;5091626;28;19920;-78
2022/12/15 04:13:56;;;;;;;;;;;;;;;-2.35;45.26;100408.16;5081765;28;19921;-78
2022/12/15 04:16:24;;;;;;;;;;;;;;;-2.35;45.19;100409.03;5072638;28;19928;-79
2022/12/15 04:20:07;;;;;;;;;;;;;;;-2.35;45.21;100406.34;5067975;28;19970;-78
2022/12/15 04:21:38;;;;;;;;;;;;;;;-2.34;45.07;100416.13;5060505;28;19920;-78
2022/12/15 05:33:05;;;;;;;;;;;;;;;-2.25;45.97;100447.03;5087245;28;20294;-80
2022/12/15 05:35:32;;;;;;;;;;;;;;;-2.22;45.64;100462.13;5087867;28;19974;-79
2022/12/15 05:38:00;;;;;;;;;;;;;;;-2.23;45.78;100458.59;5085523;28;20002;-80
2022/12/15 05:40:27;;;;;;;;;;;;;;;-2.19;45.68;100464.66;5089577;28;19973;-79
2022/12/15 05:42:57;;;;;;;;;;;;;;;-2.19;45.56;100462.88;5066106;28;19920;-81
2022/12/15 05:45:25;;;;;;;;;;;;;;;-2.16;45.74;100464.56;5064181;28;20288;-79
2022/12/15 05:47:53;;;;;;;;;;;;;;;-2.16;45.49;100465.44;5088764;28;20298;-79
2022/12/15 05:50:22;;;;;;;;;;;;;;;-2.16;45.81;100465.44;5065061;28;19924;-76
2022/12/15 05:52:50;;;;;;;;;;;;;;;-2.13;45.88;100476.03;5088949;28;19920;-78
2022/12/15 05:55:18;;;;;;;;;;;;;;;-2.12;45.84;100471.56;5065617;28;19932;-78
2022/12/15 05:57:50;;;;;;;;;;;;;;;-2.11;45.63;100466.09;5063345;28;20046;-79
2022/12/15 06:00:18;;;;;;;;;;;;;;;-2.11;45.69;100474.16;5078371;28;19935;-78
2022/12/15 06:02:46;;;;;;;;;;;;;;;-2.09;45.80;100472.28;5062373;28;19928;-78
2022/12/15 06:05:16;;;;;;;;;;;;;;;-2.06;45.92;100477.53;5084548;28;19935;-79
2022/12/15 06:07:45;;;;;;;;;;;;;;;-2.05;45.95;100476.59;5090507;28;19966;-78
2022/12/15 06:10:13;;;;;;;;;;;;;;;-2.05;45.89;100468.56;5066080;28;19923;-78
2022/12/15 06:12:40;;;;;;;;;;;;;;;-2.01;45.98;100469.28;5069409;28;19928;-79
2022/12/15 06:15:08;;;;;;;;;;;;;;;-2.01;46.09;100472.84;5086630;28;20000;-79
2022/12/15 06:17:36;;;;;;;;;;;;;;;-2.00;45.69;100479.94;5086387;28;19927;-79
2022/12/15 06:20:04;;;;;;;;;;;;;;;-1.99;45.84;100488.88;5063114;28;20386;-79
2022/12/15 06:22:31;;;;;;;;;;;;;;;-1.99;45.59;100492.41;5071700;28;20379;-78
2022/12/15 06:25:00;;;;;;;;;;;;;;;-1.99;45.47;100484.38;5065646;28;20341;-78
2022/12/15 06:27:28;;;;;;;;;;;;;;;-2.00;45.80;100476.38;5090781;28;19920;-78
2022/12/15 06:29:55;;;;;;;;;;;;;;;-2.01;45.61;100480.88;5088814;28;19924;-78
2022/12/15 06:32:23;;;;;;;;;;;;;;;-2.03;45.72;100481.88;5088526;28;20436;-79
2022/12/15 06:34:51;;;;;;;;;;;;;;;-2.04;45.66;100481.03;5093349;28;19927;-79
2022/12/15 06:37:18;;;;;;;;;;;;;;;-2.04;45.62;100483.72;5095893;28;20400;-78
2022/12/15 06:39:46;;;;;;;;;;;;;;;-2.04;45.70;100483.72;5096564;28;20099;-79
2022/12/15 06:42:15;;;;;;;;;;;;;;;-2.05;45.52;100486.44;5090992;28;20402;-81
2022/12/15 06:44:43;;;;;;;;;;;;;;;-2.06;45.66;100490.94;5085092;28;19987;-80
2022/12/15 06:47:10;;;;;;;;;;;;;;;-2.05;45.44;100489.13;5064570;28;20244;-77
2022/12/15 06:49:38;;;;;;;;;;;;;;;-2.07;45.72;100485.63;5079529;28;19943;-79
2022/12/15 06:52:06;;;;;;;;;;;;;;;-2.07;45.62;100485.63;5081755;28;19924;-77
2022/12/15 06:54:33;;;;;;;;;;;;;;;-2.09;45.70;100483.00;5064896;28;20099;-79
2022/12/15 06:57:01;;;;;;;;;;;;;;;-2.11;45.29;100487.56;5064819;28;20379;-79
2022/12/15 06:59:30;;;;;;;;;;;;;;;-2.12;45.45;100480.44;5085974;28;19919;-78
2022/12/15 07:01:59;;;;;;;;;;;;;;;-2.13;45.17;100488.56;5085981;28;19958;-80
2022/12/15 07:04:27;;;;;;;;;;;;;;;-2.16;45.27;100488.69;5065618;28;19927;-78
2022/12/15 07:06:55;;;;;;;;;;;;;;;-2.17;45.44;100494.97;5092934;28;19920;-78
2022/12/15 07:09:24;;;;;;;;;;;;;;;-2.19;45.40;100496.84;5087569;28;19931;-79
2022/12/15 07:11:53;;;;;;;;;;;;;;;-2.21;45.16;100496.94;5091549;28;19928;-82
2022/12/15 07:14:21;;;;;;;;;;;;;;;-2.23;45.31;100500.59;5073554;28;19968;-80
2022/12/15 07:16:50;;;;;;;;;;;;;;;-2.25;45.32;100507.81;5079545;28;20321;-78
2022/12/15 07:19:18;;;;;;;;;;;;;;;-2.26;45.46;100511.44;5062031;28;19928;-76
2022/12/15 07:21:46;;;;;;;;;;;;;;;-2.27;45.30;100512.38;5065699;28;19954;-79
2022/12/15 07:24:14;;;;;;;;;;;;;;;-2.28;45.57;100516.00;5083167;28;19920;-78
2022/12/15 07:26:42;;;;;;;;;;;;;;;-2.30;45.31;100516.06;5064536;28;19973;-78
2022/12/15 07:29:10;;;;;;;;;;;;;;;-2.32;45.71;100529.53;5089755;28;20344;-77
2022/12/15 07:31:38;;;;;;;;;;;;;;;-2.32;45.64;100523.28;5077599;28;19924;-78
2022/12/15 07:34:07;;;;;;;;;;;;;;;-2.33;45.25;100524.22;5098385;28;20385;-77
2022/12/15 07:36:34;;;;;;;;;;;;;;;-2.33;45.25;100530.44;5086635;28;19927;-77
2022/12/15 07:39:04;;;;;;;;;;;;;;;-2.34;45.49;100527.81;5091555;28;19973;-77
2022/12/15 07:41:32;;;;;;;;;;;;;;;-2.34;45.60;100528.69;5088612;28;19923;-78
2022/12/15 07:44:01;;;;;;;;;;;;;;;-2.34;45.27;100531.38;5081986;28;20383;-78
2022/12/15 07:46:28;;;;;;;;;;;;;;;-2.33;45.52;100532.25;5066918;28;19920;-82
2022/12/15 07:48:56;;;;;;;;;;;;;;;-2.32;45.61;100532.19;5123269;22;20954;-80
2022/12/15 07:51:26;;;;;;;;;;;;;;;-2.32;45.40;100524.16;5055899;28;19942;-79
2022/12/15 07:53:54;;;;;;;;;;;;;;;-2.29;45.44;100538.38;5056216;28;19920;-80
2022/12/15 07:56:22;;;;;;;;;;;;;;;-2.29;45.45;100533.91;5057961;28;19963;-79
2022/12/15 07:58:50;;;;;;;;;;;;;;;-2.28;45.38;100537.44;5052278;28;20385;-80
2022/12/15 08:01:18;;;;;;;;;;;;;;;-2.26;45.62;100536.44;5079338;28;19981;-79
2022/12/15 08:03:47;;;;;;;;;;;;;;;-2.25;45.31;100537.31;5067749;28;19924;-80
2022/12/15 08:06:15;;;;;;;;;;;;;;;-2.23;45.53;100533.63;5059705;28;19919;-81
2022/12/15 08:08:44;;;;;;;;;;;;;;;-2.22;45.35;100530.03;5060284;28;19920;-80
2022/12/15 08:11:18;;;;;;;;;;;;;;;-2.19;45.68;100545.09;5055775;28;20035;-80
2022/12/15 08:13:46;;;;;;;;;;;;;;;-2.19;45.79;100548.66;5051126;28;19946;-81
2022/12/15 08:16:35;;;;;;;;;;;;;;;-2.17;45.61;100540.56;5067871;28;19927;-81
2022/12/15 08:19:04;;;;;;;;;;;;;;;-2.15;45.73;100542.25;5057701;28;19972;-81
2022/12/15 08:21:32;;;;;;;;;;;;;;;-2.14;45.61;100535.09;5065829;28;19927;-81
2022/12/15 08:24:01;;;;;;;;;;;;;;;-2.13;45.38;100534.16;5056488;28;20433;-81
2022/12/15 08:26:29;;;;;;;;;;;;;;;-2.12;45.79;100543.94;5057192;28;19951;-80
2022/12/15 08:29:01;;;;;;;;;;;;;;;-2.12;45.49;100547.47;5050307;28;19921;-79
2022/12/15 08:31:49;;;;;;;;;;;;;;;-2.10;45.58;100552.78;5087905;28;19930;-81
2022/12/15 08:34:18;;;;;;;;;;;;;;;-2.08;45.80;100550.91;5061969;28;20639;-81
2022/12/15 08:36:45;;;;;;;;;;;;;;;-2.07;45.67;100560.72;5058673;28;19921;-79
2022/12/15 08:39:15;;;;;;;;;;;;;;;-2.06;45.56;100565.13;5059487;28;20287;-80
2022/12/15 08:41:42;;;;;;;;;;;;;;;-2.05;45.37;100574.94;5055909;28;19955;-79
2022/12/15 08:44:10;;;;;;;;;;;;;;;-2.03;45.72;100578.41;5057502;28;19928;-80
2022/12/15 08:46:38;;;;;;;;;;;;;;;-2.02;45.76;100564.06;5055654;28;19924;-80
2022/12/15 08:49:07;;;;;;;;;;;;;;;-2.01;45.73;100569.38;5057303;28;19970;-80
2022/12/15 08:51:35;;;;;;;;;;;;;;;-1.99;45.48;100575.56;5074607;28;19932;-80
2022/12/15 08:54:03;;;;;;;;;;;;;;;-1.97;45.78;100567.44;5055850;28;19959;-79
2022/12/15 08:56:32;;;;;;;;;;;;;;;-1.97;45.64;100573.69;5070372;28;19920;-79
2022/12/15 08:59:01;;;;;;;;;;;;;;;-1.95;45.57;100576.28;5056363;28;19925;-80
2022/12/15 09:01:29;;;;;;;;;;;;;;;-1.94;45.83;100578.91;5056711;28;20019;-80
2022/12/15 09:03:58;;;;;;;;;;;;;;;-1.93;45.61;100579.78;5067622;28;20429;-79
2022/12/15 09:06:26;;;;;;;;;;;;;;;-1.91;45.73;100588.66;5071517;28;19967;-79
2022/12/15 09:08:56;;;;;;;;;;;;;;;-1.90;45.74;100592.19;5056302;28;20513;-80
2022/12/15 09:11:24;;;;;;;;;;;;;;;-1.88;45.83;100587.66;5062195;28;19946;-81
2022/12/15 09:13:56;;;;;;;;;;;;;;;-1.88;45.76;100588.53;5062404;28;19928;-80
2022/12/15 09:16:24;;;;;;;;;;;;;;;-1.86;45.86;100591.13;5068853;28;19927;-83
2022/12/15 09:18:53;;;;;;;;;;;;;;;-1.84;45.93;100597.31;5048361;28;19924;-82
2022/12/15 09:21:22;;;;;;;;;;;;;;;-1.84;45.80;100605.34;5064524;28;20724;-82
2022/12/15 09:23:50;;;;;;;;;;;;;;;-1.84;45.72;100608.91;5095368;28;19927;-82
2022/12/15 09:26:19;;;;;;;;;;;;;;;-1.82;45.80;100611.53;5069001;28;19931;-83
2022/12/15 09:28:47;;;;;;;;;;;;;;;-1.82;45.88;100612.41;5056122;28;19946;-82
2022/12/15 09:31:20;;;;;;;;;;;;;;;-1.81;46.09;100618.66;5065848;28;20381;-82
2022/12/15 09:33:49;;;;;;;;;;;;;;;-1.80;45.85;100620.41;5059199;28;19927;-82
2022/12/15 09:36:16;;;;;;;;;;;;;;;-1.79;45.97;100624.84;5056061;28;20542;-82
2022/12/15 09:38:44;;;;;;;;;;;;;;;-1.78;45.90;100632.81;5055244;28;19928;-82
2022/12/15 09:41:20;;;;;;;;;;;;;;;-1.76;46.13;100635.44;5056175;28;19943;-80
2022/12/15 09:43:53;;;;;;;;;;;;;;;-1.76;45.86;100633.63;5060054;28;20171;-80
2022/12/15 09:46:27;;;;;;;;;;;;;;;-1.76;45.97;100633.63;5057670;28;20015;-81
2022/12/15 09:48:57;;;;;;;;;;;;;;;-1.75;45.96;100647.91;5048684;28;19932;-80
2022/12/15 09:51:30;;;;;;;;;;;;;;;-1.75;45.69;100638.06;5055278;28;19928;-82
2022/12/15 09:53:58;;;;;;;;;;;;;;;-1.74;45.80;100642.50;5065648;28;19928;-80
2022/12/15 09:56:31;;;;;;;;;;;;;;;-1.73;45.98;100644.25;5045393;28;19970;-80
2022/12/15 09:59:03;;;;;;;;;;;;;;;-1.72;46.07;100645.13;5055049;28;19920;-80
2022/12/15 10:01:37;;;;;;;;;;;;;;;-1.71;45.97;100644.19;5059708;28;20303;-80
2022/12/15 10:04:07;;;;;;;;;;;;;;;-1.70;46.09;100641.41;5077539;28;19955;-80
2022/12/15 10:06:38;;;;;;;;;;;;;;;-1.69;46.10;100640.47;5056781;28;19921;-80
2022/12/15 10:09:18;;;;;;;;;;;;;;;-1.68;46.14;100636.88;5076572;28;19920;-80
2022/12/15 10:11:50;;;;;;;;;;;;;;;-1.67;45.95;100633.25;5070068;28;19926;-80
2022/12/15 10:14:26;;;;;;;;;;;;;;;-1.65;46.07;100636.75;5074618;28;20353;-80
2022/12/15 10:17:00;;;;;;;;;;;;;;;-1.64;46.20;100638.50;5063405;28;19925;-80
2022/12/15 10:19:34;;;;;;;;;;;;;;;-1.66;46.17;100634.13;5050589;28;19940;-79
2022/12/15 10:22:02;;;;;;;;;;;;;;;-1.65;45.96;100630.50;5052232;28;19929;-80
2022/12/15 10:24:32;;;;;;;;;;;;;;;-1.65;45.81;100635.88;5053116;28;20341;-81
2022/12/15 10:27:30;;;;;;;;;;;;;;;-1.69;46.09;100642.28;5058100;28;20200;-81
2022/12/15 10:30:01;;;;;;;;;;;;;;;-1.70;45.70;100643.22;5085054;28;19920;-80
2022/12/15 10:32:34;;;;;;;;;;;;;;;-1.73;45.95;100633.50;5049117;28;19924;-80
2022/12/15 10:35:14;;;;;;;;;;;;;;;-1.74;46.00;100641.63;5044661;28;19920;-80
2022/12/15 10:37:42;;;;;;;;;;;;;;;-1.77;45.90;100650.66;5066963;28;19927;-80
2022/12/15 10:40:14;;;;;;;;;;;;;;;-1.79;45.81;100655.19;5064031;28;19930;-79
2022/12/15 10:42:45;;;;;;;;;;;;;;;-1.79;45.79;100654.34;5060702;28;20045;-80
2022/12/15 10:45:31;;;;;;;;;;;;;;;-1.80;45.65;100652.59;5060113;28;19920;-80
2022/12/15 10:48:02;;;;;;;;;;;;;;;-1.82;45.69;100652.66;5043847;28;20371;-82
2022/12/15 10:50:30;;;;;;;;;;;;;;;-1.83;45.85;100650.91;5063491;28;19944;-80
2022/12/15 10:52:58;;;;;;;;;;;;;;;-1.83;45.77;100648.22;5069702;28;19922;-80
2022/12/15 10:55:32;;;;;;;;;;;;;;;-1.84;45.88;100635.75;5087173;28;19932;-83
2022/12/15 10:58:01;;;;;;;;;;;;;;;-1.83;46.24;100640.19;5087254;28;19927;-80
2022/12/15 11:00:29;;;;;;;;;;;;;;;-1.82;46.00;100641.94;5070780;28;19966;-80
2022/12/15 11:02:57;;;;;;;;;;;;;;;-1.81;46.31;100637.44;5067316;28;19924;-81
2022/12/15 11:05:27;;;;;;;;;;;;;;;-1.80;45.85;100634.69;5073588;28;20270;-79
2022/12/15 11:07:55;;;;;;;;;;;;;;;-1.79;46.30;100624.84;5057143;28;20302;-81
2022/12/15 11:10:24;;;;;;;;;;;;;;;-1.79;46.17;100635.56;5058478;28;19924;-80
2022/12/15 11:12:56;;;;;;;;;;;;;;;-1.79;45.98;100631.06;5065809;28;19935;-82
2022/12/15 11:15:39;;;;;;;;;;;;;;;-1.78;45.98;100632.81;5054553;28;19931;-79
2022/12/15 11:18:11;;;;;;;;;;;;;;;-1.79;46.18;100632.91;5075892;28;20014;-80
2022/12/15 11:20:42;;;;;;;;;;;;;;;-1.77;46.32;100633.69;5055698;28;19921;-79
2022/12/15 11:23:13;;;;;;;;;;;;;;;-1.77;46.15;100631.00;5055821;28;20023;-78
2022/12/15 11:25:42;;;;;;;;;;;;;;;-1.78;46.32;100624.75;5064694;28;19967;-79
2022/12/15 11:28:15;;;;;;;;;;;;;;;-1.77;46.41;100625.63;5058213;28;19924;-79
2022/12/15 11:30:45;;;;;;;;;;;;;;;-1.77;46.34;100620.28;5055360;28;19951;-79
2022/12/15 11:33:13;;;;;;;;;;;;;;;-1.77;46.30;100617.59;5069336;28;19977;-79
2022/12/15 11:36:01;;;;;;;;;;;;;;;-1.76;46.02;100612.16;5053309;28;19982;-79
2022/12/15 11:38:33;;;;;;;;;;;;;;;-1.75;46.55;100613.91;5053698;28;19921;-81
2022/12/15 11:41:08;;;;;;;;;;;;;;;-1.74;46.26;100612.09;5049254;28;20286;-83
2022/12/15 11:43:52;;;;;;;;;;;;;;;-1.73;46.01;100619.22;5065054;28;20366;-79
2022/12/15 11:46:22;;;;;;;;;;;;;;;-1.74;46.52;100617.47;5073564;28;19924;-80
2022/12/15 11:48:57;;;;;;;;;;;;;;;-1.74;46.03;100621.03;5065591;28;20378;-80
2022/12/15 11:51:31;;;;;;;;;;;;;;;-1.74;46.27;100620.16;5053710;28;19973;-81
2022/12/15 11:54:03;;;;;;;;;;;;;;;-1.74;46.14;100612.09;5057254;28;20444;-80
2022/12/15 11:56:33;;;;;;;;;;;;;;;-1.76;46.19;100614.84;5058169;28;20311;-80
2022/12/15 11:59:10;;;;;;;;;;;;;;;-1.75;46.17;100610.34;5062738;28;19965;-81
2022/12/15 12:01:47;;;;;;;;;;;;;;;-1.75;46.05;100610.34;5052474;28;19975;-79
2022/12/15 12:04:26;;;;;;;;;;;;;;;-1.79;46.48;100614.97;5048065;28;20377;-78
2022/12/15 12:07:01;;;;;;;;;;;;;;;-1.76;46.14;100619.34;5047716;28;19925;-80
2022/12/15 12:09:30;;;;;;;;;;;;;;;-1.75;46.28;100621.09;5048677;28;19924;-78
2022/12/15 12:12:04;;;;;;;;;;;;;;;-1.75;46.38;100616.59;5053875;28;20275;-80
2022/12/15 12:14:39;;;;;;;;;;;;;;;-1.73;46.37;100614.72;5053618;28;19920;-82
2022/12/15 12:17:08;;;;;;;;;;;;;;;-1.70;46.57;100613.72;5046833;28;19924;-78
2022/12/15 12:19:41;;;;;;;;;;;;;;;-1.69;46.49;100613.66;5054062;28;20406;-81
2022/12/15 12:22:16;;;;;;;;;;;;;;;-1.65;46.35;100611.72;5053721;28;19928;-85
2022/12/15 12:24:45;;;;;;;;;;;;;;;-1.63;46.35;100608.06;5077727;28;20170;-79
2022/12/15 12:27:24;;;;;;;;;;;;;;;-1.59;46.56;100603.41;5055224;28;19931;-80
2022/12/15 12:29:56;;;;;;;;;;;;;;;-1.57;46.65;100605.13;5060744;28;20382;-80
2022/12/15 12:32:28;;;;;;;;;;;;;;;-1.53;46.89;100599.59;5055872;28;20330;-80
2022/12/15 12:35:01;;;;;;;;;;;;;;;-1.50;46.64;100603.03;5057173;28;19920;-79
2022/12/15 12:37:51;;;;;;;;;;;;;;;-1.47;46.64;100597.56;5062629;28;19924;-80
2022/12/15 12:40:22;;;;;;;;;;;;;;;-1.44;46.80;100596.53;5062101;28;19931;-83
2022/12/15 12:42:53;;;;;;;;;;;;;;;-1.42;46.60;100589.28;5057970;28;19999;-81
2022/12/15 12:45:22;;;;;;;;;;;;;;;-1.39;46.63;100589.19;5046879;28;20662;-79
2022/12/15 12:47:52;;;;;;;;;;;;;;;-1.38;46.41;100581.06;5070473;28;20329;-79
2022/12/15 12:50:22;;;;;;;;;;;;;;;-1.35;46.53;100582.72;5060196;28;19924;-79
2022/12/15 12:52:52;;;;;;;;;;;;;;;-1.35;46.71;100580.03;5050269;28;19921;-80
2022/12/15 12:55:24;;;;;;;;;;;;;;;-1.35;46.59;100572.88;5049324;28;19928;-81
2022/12/15 12:57:53;;;;;;;;;;;;;;;-1.33;46.60;100572.81;5052353;28;19924;-83
2022/12/15 13:00:22;;;;;;;;;;;;;;;-1.32;46.37;100563.81;5051552;28;19924;-80
2022/12/15 13:02:55;;;;;;;;;;;;;;;-1.33;46.29;100564.75;5060143;28;20018;-82
2022/12/15 13:05:25;;;;;;;;;;;;;;;-1.33;46.52;100554.88;5066181;28;19920;-80
2022/12/15 13:07:56;;;;;;;;;;;;;;;-1.32;46.60;100545.03;5042606;28;19928;-82
2022/12/15 13:10:25;;;;;;;;;;;;;;;-1.32;46.44;100540.53;5057036;28;20314;-79
2022/12/15 13:12:53;;;;;;;;;;;;;;;-1.32;46.29;100536.97;5055205;28;19974;-79
2022/12/15 13:15:33;;;;;;;;;;;;;;;-1.31;46.65;100527.97;5054111;28;19943;-81
2022/12/15 13:18:06;;;;;;;;;;;;;;;-1.34;46.54;100515.56;5054485;28;19920;-81
2022/12/15 13:20:34;;;;;;;;;;;;;;;-1.32;46.35;100504.75;5075397;28;19974;-79
2022/12/15 13:23:32;;;;;;;;;;;;;;;-1.31;46.41;100495.75;5047643;28;20255;-79
2022/12/15 13:26:11;;;;;;;;;;;;;;;-1.31;46.23;100502.00;5047423;28;19927;-82
2022/12/15 13:28:44;;;;;;;;;;;;;;;-1.31;46.35;100507.38;5053037;28;19921;-80
2022/12/15 13:31:21;;;;;;;;;;;;;;;-1.32;46.19;100497.56;5054184;28;19928;-81
2022/12/15 13:33:51;;;;;;;;;;;;;;;-1.33;46.48;100503.88;5065674;28;20348;-81
2022/12/15 13:36:38;;;;;;;;;;;;;;;-1.32;46.22;100505.63;5051132;28;19921;-81
2022/12/15 13:39:27;;;;;;;;;;;;;;;-1.33;46.46;100503.00;5076460;28;19960;-80
2022/12/15 13:42:12;;;;;;;;;;;;;;;-1.34;46.24;100495.88;5043170;28;19925;-79
2022/12/15 13:45:14;;;;;;;;;;;;;;;-1.34;46.07;100487.84;5072008;28;19920;-80
2022/12/15 13:47:50;;;;;;;;;;;;;;;-1.34;46.21;100493.19;5059685;28;19921;-81
2022/12/15 13:50:27;;;;;;;;;;;;;;;-1.34;46.57;100488.72;5053204;28;19920;-80
2022/12/15 13:52:56;;;;;;;;;;;;;;;-1.32;46.53;100477.91;5063979;28;20014;-80
2022/12/15 13:55:51;;;;;;;;;;;;;;;-1.32;46.28;100469.84;5067952;28;19926;-82
2022/12/15 13:58:20;;;;;;;;;;;;;;;-1.30;46.44;100470.66;5075836;28;19926;-80
2022/12/15 14:00:51;;;;;;;;;;;;;;;-1.29;46.56;100461.63;5058174;28;20374;-79
2022/12/15 14:03:19;;;;;;;;;;;;;;;-1.28;46.50;100460.69;5055947;22;19922;-80
2022/12/15 14:05:48;;;;;;;;;;;;;;;-1.27;46.73;100467.81;5023867;28;19947;-78
2022/12/15 14:08:18;;;;;;;;;;;;;;;-1.27;46.70;100459.78;5052323;28;19940;-78
2022/12/15 14:10:47;;;;;;;;;;;;;;;-1.26;46.31;100456.16;5048468;28;19959;-80
2022/12/15 14:13:20;;;;;;;;;;;;;;;-1.26;46.39;100461.50;5034930;28;20016;-80
2022/12/15 14:15:51;;;;;;;;;;;;;;;-1.25;46.32;100465.94;5019562;28;19996;-79
2022/12/15 14:18:24;;;;;;;;;;;;;;;-1.25;46.37;100460.56;5030507;28;19936;-80
2022/12/15 14:20:52;;;;;;;;;;;;;;;-1.24;46.46;100454.28;5030210;28;19921;-81
2022/12/15 14:23:21;;;;;;;;;;;;;;;-1.25;46.45;100453.41;5034885;28;19920;-80
2022/12/15 14:25:53;;;;;;;;;;;;;;;-1.25;46.56;100449.84;5021236;28;19978;-79
2022/12/15 14:28:25;;;;;;;;;;;;;;;-1.24;46.49;100443.53;5019621;28;19943;-78
2022/12/15 14:30:52;;;;;;;;;;;;;;;-1.23;46.72;100431.84;5023279;28;19921;-81
2022/12/15 14:33:20;;;;;;;;;;;;;;;-1.23;46.34;100430.03;5032066;28;19921;-80
2022/12/15 14:35:57;;;;;;;;;;;;;;;-1.23;46.49;100423.81;5033955;28;19967;-79
2022/12/15 14:38:27;;;;;;;;;;;;;;;-1.23;46.35;100423.81;5033023;28;19921;-79
2022/12/15 14:40:56;;;;;;;;;;;;;;;-1.24;46.30;100419.38;5016762;28;19925;-80
2022/12/15 14:43:26;;;;;;;;;;;;;;;-1.25;46.29;100413.13;5031708;28;19942;-80
2022/12/15 14:45:54;;;;;;;;;;;;;;;-1.24;46.56;100403.25;5025703;28;19921;-78
2022/12/15 14:48:27;;;;;;;;;;;;;;;-1.24;46.25;100408.63;5015353;28;20000;-78
2022/12/15 14:51:11;;;;;;;;;;;;;;;-1.25;46.49;100405.06;5039423;28;20479;-78
2022/12/15 14:53:41;;;;;;;;;;;;;;;-1.24;46.49;100411.31;5020443;28;19921;-78
2022/12/15 14:56:20;;;;;;;;;;;;;;;-1.24;46.57;100417.56;5017067;28;19972;-79
2022/12/15 14:58:59;;;;;;;;;;;;;;;-1.25;46.48;100418.50;5023197;28;19983;-79
2022/12/15 15:01:28;;;;;;;;;;;;;;;-1.24;46.60;100420.25;5041762;28;19921;-79
2022/12/15 15:03:57;;;;;;;;;;;;;;;-1.24;46.52;100417.56;5036840;28;19927;-78
2022/12/15 15:06:30;;;;;;;;;;;;;;;-1.23;46.52;100423.81;5030980;28;19928;-79
2022/12/15 15:09:03;;;;;;;;;;;;;;;-1.24;46.37;100419.38;5038994;28;20016;-78
2022/12/15 15:11:32;;;;;;;;;;;;;;;-1.24;46.42;100414.00;5027838;28;19956;-78
2022/12/15 15:14:02;;;;;;;;;;;;;;;-1.24;46.61;100422.94;5008834;28;20474;-81
2022/12/15 15:16:30;;;;;;;;;;;;;;;-1.24;46.53;100427.44;5034646;28;19921;-80
2022/12/15 15:19:01;;;;;;;;;;;;;;;-1.25;46.50;100434.59;5013784;28;19921;-79